createdAt,value
2018-08-09T00:00:50.767Z,100433.74
2018-08-09T00:03:18.814Z,100434.52
2018-08-09T00:05:46.860Z,100429.36
2018-08-09T00:08:14.915Z,100431.72
2018-08-09T00:10:42.989Z,100440.36
2018-08-09T00:13:11.069Z,100451.27
2018-08-09T00:15:39.130Z,100440.15
2018-08-09T00:18:07.206Z,100447.22
2018-08-09T00:20:35.263Z,100440.98
2018-08-09T00:23:03.331Z,100448.89
2018-08-09T00:25:31.403Z,100439.00
2018-08-09T00:27:59.474Z,100442.77
2018-08-09T00:30:27.536Z,100437.10
2018-08-09T00:32:55.617Z,100432.81
2018-08-09T00:35:23.653Z,100425.39
2018-08-09T00:37:51.738Z,100423.47
2018-08-09T00:40:19.794Z,100425.09
2018-08-09T00:42:47.876Z,100426.73
2018-08-09T00:45:15.919Z,100419.39
2018-08-09T00:47:43.983Z,100427.80
2018-08-09T00:50:12.051Z,100419.16
2018-08-09T00:52:40.103Z,100424.78
2018-08-09T00:55:08.171Z,100426.69
2018-08-09T00:57:36.232Z,100423.96
2018-08-09T01:00:05.130Z,100423.67
2018-08-09T01:02:33.319Z,100419.87
2018-08-09T01:05:01.394Z,100423.11
2018-08-09T01:07:29.454Z,100406.37
2018-08-09T01:09:57.532Z,100406.22
2018-08-09T01:12:25.604Z,100396.83
2018-08-09T01:14:53.708Z,100391.91
2018-08-09T01:17:21.776Z,100392.27
2018-08-09T01:19:49.834Z,100386.81
2018-08-09T01:22:17.914Z,100394.77
2018-08-09T01:24:46.075Z,100387.66
2018-08-09T01:27:14.120Z,100393.95
2018-08-09T01:29:42.192Z,100391.52
2018-08-09T01:32:10.254Z,100386.59
2018-08-09T01:34:38.315Z,100385.22
2018-08-09T01:37:06.378Z,100390.14
2018-08-09T01:39:34.457Z,100386.86
2018-08-09T01:42:13.832Z,100387.39
2018-08-09T01:44:41.905Z,100387.64
2018-08-09T01:47:09.990Z,100387.64
2018-08-09T01:49:38.096Z,100376.48
2018-08-09T01:52:06.556Z,100380.00
2018-08-09T01:54:34.622Z,100374.27
2018-08-09T01:57:02.688Z,100376.70
2018-08-09T01:59:30.759Z,100376.42
2018-08-09T02:01:58.839Z,100375.34
2018-08-09T02:04:26.937Z,100367.98
2018-08-09T02:06:54.990Z,100361.16
2018-08-09T02:09:28.386Z,100371.53
2018-08-09T02:11:56.454Z,100366.61
2018-08-09T02:14:24.551Z,100365.81
2018-08-09T02:16:52.639Z,100367.19
2018-08-09T02:19:20.929Z,100372.07
2018-08-09T02:21:48.986Z,100375.36
2018-08-09T02:24:17.159Z,100368.27
2018-08-09T02:26:45.258Z,100358.43
2018-08-09T02:29:13.316Z,100360.33
2018-08-09T02:31:41.375Z,100363.66
2018-08-09T02:34:09.648Z,100354.65
2018-08-09T02:36:37.696Z,100352.97
2018-08-09T02:39:07.557Z,100348.87
2018-08-09T02:41:35.780Z,100356.27
2018-08-09T02:44:03.934Z,100347.27
2018-08-09T02:46:32.006Z,100354.65
2018-08-09T02:49:00.072Z,100354.08
2018-08-09T02:51:28.287Z,100348.36
2018-08-09T02:53:56.352Z,100353.28
2018-08-09T02:56:24.544Z,100351.92
2018-08-09T02:58:52.680Z,100355.75
2018-08-09T03:01:20.740Z,100354.95
2018-08-09T03:03:48.817Z,100341.86
2018-08-09T03:06:16.871Z,100333.93
2018-08-09T03:08:44.930Z,100342.40
2018-08-09T03:11:13.054Z,100341.86
2018-08-09T03:13:41.220Z,100343.48
2018-08-09T03:16:09.322Z,100338.02
2018-08-09T03:18:37.350Z,100338.84
2018-08-09T03:21:05.402Z,100330.38
2018-08-09T03:23:33.548Z,100340.21
2018-08-09T03:26:01.639Z,100338.30
2018-08-09T03:28:29.687Z,100327.94
2018-08-09T03:30:57.980Z,100327.67
2018-08-09T03:33:26.028Z,100325.23
2018-08-09T03:35:54.131Z,100327.13
2018-08-09T03:38:22.199Z,100330.69
2018-08-09T03:40:50.322Z,100330.97
2018-08-09T03:43:18.360Z,100327.93
2018-08-09T03:45:46.414Z,100326.03
2018-08-09T03:48:14.492Z,100323.33
2018-08-09T03:50:42.560Z,100327.42
2018-08-09T03:53:10.634Z,100329.31
2018-08-09T03:55:38.683Z,100329.58
2018-08-09T03:58:07.827Z,100330.41
2018-08-09T04:00:35.854Z,100336.11
2018-08-09T04:03:03.922Z,100332.84
2018-08-09T04:05:31.993Z,100327.13
2018-08-09T04:08:00.045Z,100333.41
2018-08-09T04:10:28.255Z,100336.39
2018-08-09T04:12:56.470Z,100337.77
2018-08-09T04:15:24.535Z,100337.22
2018-08-09T04:17:52.628Z,100338.03
2018-08-09T04:20:20.643Z,100337.80
2018-08-09T04:22:48.714Z,100341.05
2018-08-09T04:25:16.829Z,100337.52
2018-08-09T04:27:44.888Z,100342.43
2018-08-09T04:30:13.045Z,100337.52
2018-08-09T04:32:41.101Z,100337.78
2018-08-09T04:35:09.150Z,100338.06
2018-08-09T04:37:37.241Z,100338.86
2018-08-09T04:40:05.343Z,100335.59
2018-08-09T04:42:33.394Z,100331.48
2018-08-09T04:45:01.489Z,100333.13
2018-08-09T04:47:29.542Z,100334.78
2018-08-09T04:49:57.612Z,100339.69
2018-08-09T04:52:25.665Z,100338.61
2018-08-09T04:54:53.728Z,100348.16
2018-08-09T04:57:21.775Z,100354.69
2018-08-09T04:59:49.868Z,100356.58
2018-08-09T05:02:17.946Z,100354.64
2018-08-09T05:04:46.001Z,100345.67
2018-08-09T05:07:14.072Z,100356.32
2018-08-09T05:09:42.195Z,100348.95
2018-08-09T05:12:10.231Z,100358.48
2018-08-09T05:14:38.281Z,100349.47
2018-08-09T05:17:06.354Z,100349.47
2018-08-09T05:19:34.454Z,100349.73
2018-08-09T05:22:02.525Z,100360.36
2018-08-09T05:24:30.740Z,100351.63
2018-08-09T05:26:58.963Z,100350.81
2018-08-09T05:29:27.056Z,100345.36
2018-08-09T05:31:55.190Z,100345.61
2018-08-09T05:34:23.341Z,100341.52
2018-08-09T05:36:51.408Z,100338.28
2018-08-09T05:39:19.483Z,100345.13
2018-08-09T05:41:47.715Z,100340.49
2018-08-09T05:44:15.803Z,100350.30
2018-08-09T05:46:43.894Z,100343.48
2018-08-09T05:49:11.947Z,100345.10
2018-08-09T05:51:40.024Z,100344.53
2018-08-09T05:54:08.084Z,100341.27
2018-08-09T05:56:36.162Z,100345.33
2018-08-09T05:59:04.246Z,100345.83
2018-08-09T06:01:32.352Z,100345.53
2018-08-09T06:04:00.430Z,100344.17
2018-08-09T06:06:28.507Z,100345.78
2018-08-09T06:08:56.598Z,100343.05
2018-08-09T06:11:24.700Z,100345.48
2018-08-09T06:13:52.747Z,100336.16
2018-08-09T06:16:21.681Z,100334.84
2018-08-09T06:18:49.746Z,100332.95
2018-08-09T06:21:17.787Z,100327.44
2018-08-09T06:23:45.853Z,100321.44
2018-08-09T06:26:13.932Z,100319.48
2018-08-09T06:28:42.022Z,100316.11
2018-08-09T06:31:10.086Z,100319.36
2018-08-09T06:33:38.153Z,100313.84
2018-08-09T06:36:06.249Z,100304.56
2018-08-09T06:38:34.375Z,100301.00
2018-08-09T06:41:02.439Z,100296.31
2018-08-09T06:43:30.515Z,100288.34
2018-08-09T06:45:58.685Z,100289.42
2018-08-09T06:48:26.799Z,100287.50
2018-08-09T06:50:54.947Z,100285.83
2018-08-09T06:53:22.998Z,100282.84
2018-08-09T06:55:51.072Z,100278.34
2018-08-09T06:58:19.189Z,100272.48
2018-08-09T07:00:47.251Z,100260.59
2018-08-09T07:03:15.322Z,100252.77
2018-08-09T07:05:43.374Z,100253.34
2018-08-09T07:08:11.611Z,100255.84
2018-08-09T07:10:39.814Z,100254.25
2018-08-09T07:13:07.876Z,100251.55
2018-08-09T07:15:35.969Z,100247.33
2018-08-09T07:18:04.033Z,100245.05
2018-08-09T07:20:32.095Z,100246.52
2018-08-09T07:23:00.157Z,100252.61
2018-08-09T07:25:28.232Z,100242.94
2018-08-09T07:27:56.342Z,100246.53
2018-08-09T07:30:24.407Z,100249.53
2018-08-09T07:32:52.466Z,100245.09
2018-08-09T07:35:20.536Z,100244.27
2018-08-09T07:37:48.594Z,100237.53
2018-08-09T07:40:16.750Z,100224.19
2018-08-09T07:42:44.849Z,100227.98
2018-08-09T07:45:13.896Z,100221.07
2018-08-09T07:47:41.990Z,100221.36
2018-08-09T07:50:10.643Z,100220.45
2018-08-09T07:52:38.946Z,100210.80
2018-08-09T07:55:08.543Z,100209.87
2018-08-09T07:57:36.600Z,100211.38
2018-08-09T08:00:06.327Z,100211.02
2018-08-09T08:02:34.421Z,100213.30
2018-08-09T08:05:02.602Z,100201.02
2018-08-09T08:07:30.668Z,100201.45
2018-08-09T08:09:58.739Z,100194.42
2018-08-09T08:12:26.810Z,100189.73
2018-08-09T08:14:54.869Z,100181.42
2018-08-09T08:17:22.954Z,100183.13
2018-08-09T08:19:51.125Z,100177.98
2018-08-09T08:22:19.214Z,100178.23
2018-08-09T08:24:47.594Z,100181.60
2018-08-09T08:27:15.646Z,100187.53
2018-08-09T08:29:43.810Z,100190.03
2018-08-09T08:32:11.948Z,100186.31
2018-08-09T08:34:40.189Z,100192.14
2018-08-09T08:37:08.194Z,100187.81
2018-08-09T08:39:36.727Z,100183.36
2018-08-09T08:42:04.837Z,100187.87
2018-08-09T08:44:32.899Z,100188.75
2018-08-09T08:47:00.979Z,100187.11
2018-08-09T08:49:29.040Z,100181.48
2018-08-09T08:51:57.098Z,100173.13
2018-08-09T08:54:25.810Z,100173.56
2018-08-09T08:56:53.880Z,100166.85
2018-08-09T08:59:21.975Z,100166.70
2018-08-09T09:01:50.060Z,100161.27
2018-08-09T09:04:18.176Z,100165.92
2018-08-09T09:06:46.210Z,100151.43
2018-08-09T09:09:14.690Z,100146.30
2018-08-09T09:11:43.020Z,100144.23
2018-08-09T09:14:11.524Z,100142.92
2018-08-09T09:16:39.599Z,100150.13
2018-08-09T09:19:08.158Z,100150.95
2018-08-09T09:21:36.260Z,100143.48
2018-08-09T09:24:04.338Z,100136.66
2018-08-09T09:26:32.480Z,100134.02
2018-08-09T09:29:00.536Z,100130.59
2018-08-09T09:31:28.586Z,100129.38
2018-08-09T09:33:56.673Z,100128.55
2018-08-09T09:36:25.448Z,100124.48
2018-08-09T10:39:38.698Z,99999.10
2018-08-09T10:42:07.063Z,99993.42
2018-08-09T10:44:35.261Z,99989.02
2018-08-09T10:47:03.516Z,99996.89
2018-08-09T10:49:31.745Z,99989.06
2018-08-09T10:51:59.903Z,99989.98
2018-08-09T10:54:28.072Z,99986.12
2018-08-09T10:56:56.245Z,99990.27
2018-08-09T10:59:24.542Z,99986.80
2018-08-09T11:01:52.756Z,99986.58
2018-08-09T11:04:21.503Z,99970.54
2018-08-09T11:06:49.685Z,99966.95
2018-08-09T11:09:17.887Z,99973.20
2018-08-09T11:11:49.089Z,99961.77
2018-08-09T11:14:17.433Z,99956.64
2018-08-09T11:16:45.725Z,99953.52
2018-08-09T11:19:17.286Z,99950.43
2018-08-09T11:21:46.215Z,99943.81
2018-08-09T11:24:14.407Z,99940.37
2018-08-09T11:26:42.600Z,99942.51
2018-08-09T11:32:05.064Z,99936.65
2018-08-09T11:34:33.345Z,99935.31
2018-08-09T11:37:02.238Z,99928.59
2018-08-09T11:39:31.035Z,99929.74
2018-08-09T11:41:59.503Z,99926.39
2018-08-09T11:44:27.760Z,99914.33
2018-08-09T11:46:55.975Z,99897.11
2018-08-09T11:49:24.223Z,99890.54
2018-08-09T11:51:52.606Z,99884.35
2018-08-09T11:54:21.255Z,99899.41
2018-08-09T11:56:49.497Z,99883.41
2018-08-09T11:59:17.773Z,99881.45
2018-08-09T12:01:47.059Z,99881.53
2018-08-09T12:04:21.617Z,99878.31
2018-08-09T12:06:50.116Z,99873.72
2018-08-09T12:09:23.173Z,99871.27
2018-08-09T12:11:51.363Z,99874.13
2018-08-09T12:14:23.375Z,99881.75
2018-08-09T12:16:52.263Z,99881.67
2018-08-09T12:19:20.476Z,99872.91
2018-08-09T12:21:59.387Z,99871.96
2018-08-09T12:24:32.969Z,99871.51
2018-08-09T12:27:10.516Z,99863.63
2018-08-09T12:29:38.699Z,99863.02
2018-08-09T12:32:07.688Z,99866.31
2018-08-09T12:34:37.618Z,99863.23
2018-08-09T12:37:10.429Z,99855.61
2018-08-09T12:39:38.636Z,99846.53
2018-08-09T12:42:06.819Z,99851.96
2018-08-09T12:44:34.996Z,99857.80
2018-08-09T12:47:04.854Z,99857.45
2018-08-09T12:49:33.053Z,99857.58
2018-08-09T12:52:01.241Z,99861.68
2018-08-09T12:54:29.413Z,99857.59
2018-08-09T12:56:57.840Z,99857.86
2018-08-09T12:59:26.056Z,99859.77
2018-08-09T13:01:54.279Z,99860.94
2018-08-09T13:04:22.478Z,99874.76
2018-08-09T13:06:51.344Z,99881.91
2018-08-09T13:09:19.532Z,99889.86
2018-08-09T13:11:47.689Z,99898.77
2018-08-09T13:14:16.121Z,99956.60
2018-08-09T13:16:44.344Z,100055.69
2018-08-09T13:19:12.629Z,100117.71
2018-08-09T13:21:40.818Z,100132.46
2018-08-09T13:24:09.031Z,100164.38
2018-08-09T13:26:37.169Z,100151.12
2018-08-09T13:29:05.472Z,100168.12
2018-08-09T13:31:33.546Z,100137.56
2018-08-09T13:34:01.796Z,100129.13
2018-08-09T13:36:29.875Z,100139.72
2018-08-09T13:38:58.012Z,100138.53
2018-08-09T13:41:26.135Z,100126.62
2018-08-09T13:43:54.318Z,100132.75
2018-08-09T13:46:22.530Z,100140.03
2018-08-09T13:48:50.640Z,100138.41
2018-08-09T13:51:18.743Z,100131.96
2018-08-09T13:53:47.030Z,100134.05
2018-08-09T13:56:15.365Z,100122.65
2018-08-09T13:58:43.516Z,100125.47
2018-08-09T14:01:11.676Z,100140.77
2018-08-09T14:03:39.740Z,100162.30
2018-08-09T14:06:07.951Z,100174.20
2018-08-09T14:08:36.171Z,100186.37
2018-08-09T14:11:04.454Z,100178.07
2018-08-09T14:13:32.684Z,100187.66
2018-08-09T14:16:00.759Z,100177.80
2018-08-09T14:18:29.044Z,100174.17
2018-08-09T14:20:57.280Z,100193.80
2018-08-09T14:23:25.343Z,100189.91
2018-08-09T14:25:53.522Z,100203.94
2018-08-09T14:28:21.715Z,100220.20
2018-08-09T14:30:50.017Z,100231.56
2018-08-09T14:33:18.319Z,100244.11
2018-08-09T14:35:46.475Z,100241.13
2018-08-09T14:38:14.567Z,100227.90
2018-08-09T14:40:42.680Z,100236.06
2018-08-09T14:43:10.890Z,100247.82
2018-08-09T14:45:38.995Z,100270.00
2018-08-09T14:48:07.108Z,100278.94
2018-08-09T14:50:35.194Z,100279.12
2018-08-09T14:53:05.299Z,100255.70
2018-08-09T14:55:36.257Z,100243.22
2018-08-09T14:58:09.283Z,100234.41
2018-08-09T15:00:40.810Z,100243.09
2018-08-09T15:03:11.864Z,100237.31
2018-08-09T15:05:41.606Z,100234.52
2018-08-09T15:08:18.139Z,100240.83
2018-08-09T15:10:46.739Z,100234.44
2018-08-09T15:13:17.210Z,100221.31
2018-08-09T15:15:54.869Z,100223.99
2018-08-09T15:18:24.560Z,100217.69
2018-08-09T15:20:54.430Z,100212.91
2018-08-09T15:23:29.039Z,100208.64
2018-08-09T15:25:59.101Z,100214.97
2018-08-09T15:28:29.033Z,100217.23
2018-08-09T15:30:59.210Z,100218.09
2018-08-09T15:33:28.273Z,100226.73
2018-08-09T15:35:59.392Z,100218.27
2018-08-09T15:38:29.924Z,100224.95
2018-08-09T15:41:01.066Z,100236.59
2018-08-09T15:43:29.970Z,100251.05
2018-08-09T15:48:58.304Z,100259.34
2018-08-09T15:51:35.013Z,100268.25
2018-08-09T15:54:08.065Z,100254.91
2018-08-09T15:56:36.506Z,100254.37
2018-08-09T15:59:24.978Z,100244.14
2018-08-09T16:01:57.535Z,100243.10
2018-08-09T16:04:26.207Z,100229.05
2018-08-09T16:06:55.433Z,100224.48
2018-08-09T16:09:23.544Z,100228.87
2018-08-09T16:11:51.644Z,100247.95
2018-08-09T16:14:19.732Z,100250.31
2018-08-09T16:16:47.837Z,100262.41
2018-08-09T16:19:15.999Z,100257.44
2018-08-09T16:21:44.090Z,100256.97
2018-08-09T16:24:12.207Z,100257.28
2018-08-09T16:26:40.953Z,100251.89
2018-08-09T16:29:09.179Z,100259.20
2018-08-09T16:31:37.435Z,100247.32
2018-08-09T16:34:05.627Z,100244.42
2018-08-09T16:36:33.816Z,100238.56
2018-08-09T16:39:01.883Z,100228.07
2018-08-09T16:41:29.958Z,100231.84
2018-08-09T16:43:58.070Z,100218.64
2018-08-09T16:46:26.268Z,100223.03
2018-08-09T16:48:54.390Z,100236.63
2018-08-09T16:51:22.472Z,100227.47
2018-08-09T16:53:50.592Z,100233.61
2018-08-09T16:56:18.698Z,100224.11
2018-08-09T16:58:46.833Z,100229.66
2018-08-09T17:01:14.911Z,100231.07
2018-08-09T17:03:42.979Z,100233.48
2018-08-09T17:06:11.063Z,100222.70
2018-08-09T17:08:39.139Z,100220.95
2018-08-09T17:11:08.116Z,100229.92
2018-08-09T17:13:36.199Z,100225.94
2018-08-09T17:16:04.320Z,100218.84
2018-08-09T17:18:32.406Z,100221.07
2018-08-09T17:21:00.502Z,100226.45
2018-08-09T17:23:31.182Z,100234.23
2018-08-09T17:25:59.416Z,100227.06
2018-08-09T17:28:27.553Z,100226.00
2018-08-09T17:30:55.694Z,100215.05
2018-08-09T17:33:24.012Z,100224.05
2018-08-09T17:35:52.136Z,100228.31
2018-08-09T17:38:20.248Z,100230.70
2018-08-09T17:40:49.108Z,100228.98
2018-08-09T17:43:20.531Z,100234.76
2018-08-09T17:45:48.613Z,100234.10
2018-08-09T17:48:16.691Z,100235.64
2018-08-09T17:50:44.883Z,100248.94
2018-08-09T17:53:13.115Z,100245.41
2018-08-09T17:55:41.188Z,100254.75
2018-08-09T17:58:09.468Z,100250.97
2018-08-09T18:00:37.535Z,100250.83
2018-08-09T18:03:06.053Z,100247.34
2018-08-09T18:05:34.131Z,100242.38
2018-08-09T18:08:02.324Z,100247.27
2018-08-09T18:10:32.233Z,100247.25
2018-08-09T18:13:00.609Z,100247.23
2018-08-09T18:15:29.554Z,100251.36
2018-08-09T18:17:58.260Z,100246.73
2018-08-09T18:20:28.554Z,100246.93
2018-08-09T18:22:56.945Z,100246.50
2018-08-09T18:25:25.299Z,100253.59
2018-08-09T18:27:53.511Z,100257.71
2018-08-09T18:30:24.318Z,100257.73
2018-08-09T18:32:57.773Z,100270.08
2018-08-09T18:35:27.309Z,100262.99
2018-08-09T18:37:59.050Z,100260.53
2018-08-09T18:40:31.121Z,100273.89
2018-08-09T18:43:07.803Z,100274.41
2018-08-09T18:45:36.285Z,100276.90
2018-08-09T18:48:04.667Z,100278.56
2018-08-09T18:50:35.289Z,100270.50
2018-08-09T18:53:03.745Z,100286.61
2018-08-09T18:55:31.989Z,100283.41
2018-08-09T18:58:00.602Z,100281.61
2018-08-09T19:00:30.073Z,100285.80
2018-08-09T19:03:03.150Z,100297.71
2018-08-09T19:05:32.295Z,100308.34
2018-08-09T19:08:01.419Z,100318.84
2018-08-09T19:10:31.844Z,100323.62
2018-08-09T19:13:11.300Z,100333.98
2018-08-09T19:15:43.836Z,100329.98
2018-08-09T19:18:13.354Z,100332.72
2018-08-09T19:20:41.740Z,100335.97
2018-08-09T19:23:09.944Z,100337.11
2018-08-09T19:25:38.189Z,100337.95
2018-08-09T19:28:10.550Z,100345.13
2018-08-09T19:30:39.077Z,100349.52
2018-08-09T19:33:08.246Z,100348.86
2018-08-09T19:35:36.532Z,100346.67
2018-08-09T19:38:07.406Z,100347.52
2018-08-09T19:40:36.787Z,100350.24
2018-08-09T19:43:05.295Z,100351.60
2018-08-09T19:45:34.217Z,100358.98
2018-08-09T19:48:03.436Z,100362.00
2018-08-09T19:50:31.748Z,100376.48
2018-08-09T19:53:01.047Z,100382.00
2018-08-09T19:55:34.341Z,100372.23
2018-08-09T19:58:06.757Z,100371.30
2018-08-09T20:00:35.788Z,100386.05
2018-08-09T20:03:07.696Z,100392.97
2018-08-09T20:05:35.750Z,100395.42
2018-08-09T20:08:03.913Z,100393.21
2018-08-09T20:10:34.439Z,100399.25
2018-08-09T20:13:02.714Z,100396.48
2018-08-09T20:15:31.231Z,100406.13
2018-08-09T20:18:03.044Z,100410.48
2018-08-09T20:20:31.293Z,100418.66
2018-08-09T20:22:59.632Z,100419.78
2018-08-09T20:25:28.494Z,100423.33
2018-08-09T20:27:57.334Z,100434.28
2018-08-09T20:30:26.694Z,100434.56
2018-08-09T20:32:54.967Z,100454.72
2018-08-09T20:35:24.667Z,100451.20
2018-08-09T20:37:53.089Z,100455.82
2018-08-09T20:40:22.533Z,100460.75
2018-08-09T20:42:52.548Z,100461.29
2018-08-09T20:45:22.762Z,100469.46
2018-08-09T20:47:51.033Z,100473.03
2018-08-09T20:50:22.988Z,100472.50
2018-08-09T21:14:58.394Z,100513.69
2018-08-09T21:17:26.595Z,100509.31
2018-08-09T21:19:55.073Z,100524.87
2018-08-09T21:22:23.828Z,100515.86
2018-08-09T21:24:52.963Z,100527.84
2018-08-09T21:27:25.338Z,100525.11
2018-08-09T21:29:55.268Z,100525.66
2018-08-09T21:32:25.472Z,100531.41
2018-08-09T21:34:54.122Z,100531.64
2018-08-09T21:37:22.916Z,100531.36
2018-08-09T21:39:51.188Z,100542.44
2018-08-09T21:42:19.834Z,100547.39
2018-08-09T21:44:48.792Z,100547.08
2018-08-09T21:47:16.937Z,100557.67
2018-08-09T21:49:45.370Z,100560.17
2018-08-09T21:52:13.635Z,100567.50
2018-08-09T21:54:42.083Z,100559.02
2018-08-09T21:57:10.273Z,100580.52
2018-08-09T21:59:39.467Z,100587.14
2018-08-09T22:02:07.468Z,100587.17
2018-08-09T22:04:39.851Z,100590.36
2018-08-09T22:07:13.682Z,100603.02
2018-08-09T22:09:51.074Z,100597.53
2018-08-09T22:12:25.049Z,100606.80
2018-08-09T22:14:58.575Z,100593.78
2018-08-09T22:17:32.020Z,100610.72
2018-08-09T22:20:05.463Z,100610.12
2018-08-09T22:22:36.350Z,100617.41
2018-08-09T22:25:06.100Z,100622.80
2018-08-09T22:27:34.340Z,100623.62
2018-08-09T22:30:02.436Z,100623.59
2018-08-09T22:32:30.592Z,100634.77
2018-08-09T22:34:58.687Z,100635.75
2018-08-09T22:37:26.879Z,100627.20
2018-08-09T22:39:54.956Z,100642.53
2018-08-09T22:42:23.043Z,100656.84
2018-08-09T22:44:51.244Z,100658.99
2018-08-09T22:47:19.327Z,100653.75
2018-08-09T22:49:47.384Z,100660.48
2018-08-09T22:52:15.445Z,100663.13
2018-08-09T22:54:43.505Z,100670.49
2018-08-09T22:57:11.577Z,100676.12
2018-08-09T22:59:39.667Z,100681.37
2018-08-09T23:02:07.781Z,100677.72
2018-08-09T23:04:35.847Z,100689.95
2018-08-09T23:07:03.963Z,100702.72
2018-08-09T23:09:32.046Z,100715.40
2018-08-09T23:12:00.139Z,100724.75
2018-08-09T23:14:28.207Z,100714.59
2018-08-09T23:16:56.295Z,100713.23
2018-08-09T23:19:24.369Z,100728.48
2018-08-09T23:21:52.420Z,100721.33
2018-08-09T23:24:20.509Z,100727.65
2018-08-09T23:26:48.571Z,100732.46
2018-08-09T23:29:16.640Z,100733.17
2018-08-09T23:31:44.716Z,100743.86
2018-08-09T23:34:12.800Z,100738.91
2018-08-09T23:36:40.930Z,100744.78
2018-08-09T23:39:11.175Z,100752.09
2018-08-09T23:41:39.248Z,100756.59
2018-08-09T23:44:07.463Z,100758.52
2018-08-09T23:46:35.544Z,100763.33
2018-08-09T23:49:03.624Z,100763.50
2018-08-09T23:51:31.700Z,100772.37
2018-08-09T23:53:59.787Z,100764.38
2018-08-09T23:56:27.960Z,100771.60
2018-08-09T23:58:56.034Z,100770.03
